sensor_id;sensor_type;location;lat;lon;timestamp;P1;durP1;ratioP1;P2;durP2;ratioP2
23304;SDS011;11821;51.456;8.844;2023-07-28T00:01:15;4.00;;;0.60;;
23304;SDS011;11821;51.456;8.844;2023-07-28T00:03:42;1.75;;;0.55;;
23304;SDS011;11821;51.456;8.844;2023-07-28T00:06:08;0.95;;;0.50;;
23304;SDS011;11821;51.456;8.844;2023-07-28T00:08:35;3.22;;;0.60;;
23304;SDS011;11821;51.456;8.844;2023-07-28T00:11:01;0.65;;;0.40;;
23304;SDS011;11821;51.456;8.844;2023-07-28T00:13:28;1.05;;;0.47;;
23304;SDS011;11821;51.456;8.844;2023-07-28T00:15:54;2.58;;;0.50;;
23304;SDS011;11821;51.456;8.844;2023-07-28T00:18:21;0.50;;;0.50;;
23304;SDS011;11821;51.456;8.844;2023-07-28T00:20:48;0.95;;;0.60;;
23304;SDS011;11821;51.456;8.844;2023-07-28T00:23:14;4.47;;;0.70;;
23304;SDS011;11821;51.456;8.844;2023-07-28T00:25:41;0.63;;;0.30;;
23304;SDS011;11821;51.456;8.844;2023-07-28T00:28:07;2.42;;;0.30;;
23304;SDS011;11821;51.456;8.844;2023-07-28T00:30:34;0.30;;;0.30;;
23304;SDS011;11821;51.456;8.844;2023-07-28T00:33:02;1.05;;;0.40;;
23304;SDS011;11821;51.456;8.844;2023-07-28T00:35:30;0.52;;;0.20;;
23304;SDS011;11821;51.456;8.844;2023-07-28T00:37:56;0.28;;;0.28;;
23304;SDS011;11821;51.456;8.844;2023-07-28T00:40:23;0.80;;;0.30;;
23304;SDS011;11821;51.456;8.844;2023-07-28T00:42:49;0.28;;;0.28;;
23304;SDS011;11821;51.456;8.844;2023-07-28T00:45:16;0.20;;;0.20;;
23304;SDS011;11821;51.456;8.844;2023-07-28T00:47:43;0.65;;;0.20;;
23304;SDS011;11821;51.456;8.844;2023-07-28T00:50:09;0.20;;;0.20;;
23304;SDS011;11821;51.456;8.844;2023-07-28T00:52:39;0.20;;;0.20;;
23304;SDS011;11821;51.456;8.844;2023-07-28T00:55:06;0.28;;;0.17;;
23304;SDS011;11821;51.456;8.844;2023-07-28T00:57:33;0.98;;;0.32;;
23304;SDS011;11821;51.456;8.844;2023-07-28T01:00:00;0.60;;;0.40;;
23304;SDS011;11821;51.456;8.844;2023-07-28T01:02:27;1.05;;;0.30;;
23304;SDS011;11821;51.456;8.844;2023-07-28T01:04:53;4.40;;;0.40;;
23304;SDS011;11821;51.456;8.844;2023-07-28T01:07:30;0.40;;;0.40;;
23304;SDS011;11821;51.456;8.844;2023-07-28T01:12:29;2.10;;;0.30;;
23304;SDS011;11821;51.456;8.844;2023-07-28T01:14:56;3.55;;;0.50;;
23304;SDS011;11821;51.456;8.844;2023-07-28T01:17:22;0.93;;;0.47;;
23304;SDS011;11821;51.456;8.844;2023-07-28T01:19:50;1.30;;;0.73;;
23304;SDS011;11821;51.456;8.844;2023-07-28T01:27:34;2.65;;;0.60;;
23304;SDS011;11821;51.456;8.844;2023-07-28T01:30:03;0.52;;;0.52;;
23304;SDS011;11821;51.456;8.844;2023-07-28T01:32:29;2.13;;;0.57;;
23304;SDS011;11821;51.456;8.844;2023-07-28T01:34:56;0.68;;;0.55;;
23304;SDS011;11821;51.456;8.844;2023-07-28T01:37:23;1.75;;;0.60;;
23304;SDS011;11821;51.456;8.844;2023-07-28T01:39:50;5.30;;;0.68;;
23304;SDS011;11821;51.456;8.844;2023-07-28T01:42:16;0.70;;;0.60;;
23304;SDS011;11821;51.456;8.844;2023-07-28T01:44:43;1.02;;;0.40;;
23304;SDS011;11821;51.456;8.844;2023-07-28T01:47:10;1.05;;;0.60;;
23304;SDS011;11821;51.456;8.844;2023-07-28T01:49:36;0.93;;;0.63;;
23304;SDS011;11821;51.456;8.844;2023-07-28T01:52:03;2.78;;;0.70;;
23304;SDS011;11821;51.456;8.844;2023-07-28T01:54:30;1.98;;;0.75;;
23304;SDS011;11821;51.456;8.844;2023-07-28T01:56:57;0.95;;;0.70;;
23304;SDS011;11821;51.456;8.844;2023-07-28T01:59:23;0.55;;;0.55;;
23304;SDS011;11821;51.456;8.844;2023-07-28T02:01:50;8.50;;;1.15;;
23304;SDS011;11821;51.456;8.844;2023-07-28T02:04:17;3.03;;;0.82;;
23304;SDS011;11821;51.456;8.844;2023-07-28T02:06:43;0.80;;;0.80;;
23304;SDS011;11821;51.456;8.844;2023-07-28T02:09:10;0.80;;;0.60;;
23304;SDS011;11821;51.456;8.844;2023-07-28T02:11:36;0.90;;;0.70;;
23304;SDS011;11821;51.456;8.844;2023-07-28T02:14:03;0.60;;;0.60;;
23304;SDS011;11821;51.456;8.844;2023-07-28T02:16:30;3.22;;;0.80;;
23304;SDS011;11821;51.456;8.844;2023-07-28T02:18:57;1.52;;;0.60;;
23304;SDS011;11821;51.456;8.844;2023-07-28T02:21:24;0.93;;;0.50;;
23304;SDS011;11821;51.456;8.844;2023-07-28T02:23:50;0.98;;;0.60;;
23304;SDS011;11821;51.456;8.844;2023-07-28T02:26:17;2.30;;;0.73;;
23304;SDS011;11821;51.456;8.844;2023-07-28T02:28:45;1.73;;;0.65;;
23304;SDS011;11821;51.456;8.844;2023-07-28T02:31:13;1.27;;;0.60;;
23304;SDS011;11821;51.456;8.844;2023-07-28T02:33:40;0.88;;;0.70;;
23304;SDS011;11821;51.456;8.844;2023-07-28T02:36:07;2.03;;;0.60;;
23304;SDS011;11821;51.456;8.844;2023-07-28T02:38:33;0.63;;;0.63;;
23304;SDS011;11821;51.456;8.844;2023-07-28T02:41:00;0.73;;;0.60;;
23304;SDS011;11821;51.456;8.844;2023-07-28T02:43:29;1.45;;;0.60;;
23304;SDS011;11821;51.456;8.844;2023-07-28T02:45:56;0.73;;;0.63;;
23304;SDS011;11821;51.456;8.844;2023-07-28T02:48:23;1.02;;;0.55;;
23304;SDS011;11821;51.456;8.844;2023-07-28T02:50:51;0.40;;;0.40;;
23304;SDS011;11821;51.456;8.844;2023-07-28T02:53:18;0.57;;;0.50;;
23304;SDS011;11821;51.456;8.844;2023-07-28T02:55:45;0.43;;;0.40;;
23304;SDS011;11821;51.456;8.844;2023-07-28T02:58:12;0.40;;;0.40;;
23304;SDS011;11821;51.456;8.844;2023-07-28T03:00:39;0.63;;;0.47;;
23304;SDS011;11821;51.456;8.844;2023-07-28T03:03:07;1.75;;;0.40;;
23304;SDS011;11821;51.456;8.844;2023-07-28T03:05:33;0.63;;;0.57;;
23304;SDS011;11821;51.456;8.844;2023-07-28T03:08:17;1.48;;;0.60;;
23304;SDS011;11821;51.456;8.844;2023-07-28T03:10:43;2.92;;;0.57;;
23304;SDS011;11821;51.456;8.844;2023-07-28T03:13:10;0.30;;;0.30;;
23304;SDS011;11821;51.456;8.844;2023-07-28T03:15:37;3.40;;;1.17;;
23304;SDS011;11821;51.456;8.844;2023-07-28T03:18:05;2.80;;;0.50;;
23304;SDS011;11821;51.456;8.844;2023-07-28T03:20:32;1.83;;;0.50;;
23304;SDS011;11821;51.456;8.844;2023-07-28T03:22:58;0.73;;;0.47;;
23304;SDS011;11821;51.456;8.844;2023-07-28T03:25:25;0.45;;;0.45;;
23304;SDS011;11821;51.456;8.844;2023-07-28T03:27:52;0.30;;;0.30;;
23304;SDS011;11821;51.456;8.844;2023-07-28T03:30:19;0.47;;;0.40;;
23304;SDS011;11821;51.456;8.844;2023-07-28T03:32:45;0.28;;;0.25;;
23304;SDS011;11821;51.456;8.844;2023-07-28T03:35:12;0.70;;;0.55;;
23304;SDS011;11821;51.456;8.844;2023-07-28T03:37:44;1.33;;;0.55;;
23304;SDS011;11821;51.456;8.844;2023-07-28T03:40:11;0.43;;;0.43;;
23304;SDS011;11821;51.456;8.844;2023-07-28T03:42:46;0.30;;;0.30;;
23304;SDS011;11821;51.456;8.844;2023-07-28T03:45:13;0.25;;;0.25;;
23304;SDS011;11821;51.456;8.844;2023-07-28T03:47:40;1.13;;;0.60;;
23304;SDS011;11821;51.456;8.844;2023-07-28T03:50:06;0.30;;;0.30;;
23304;SDS011;11821;51.456;8.844;2023-07-28T03:52:36;0.30;;;0.30;;
23304;SDS011;11821;51.456;8.844;2023-07-28T03:55:03;0.57;;;0.28;;
23304;SDS011;11821;51.456;8.844;2023-07-28T03:57:30;0.55;;;0.30;;
23304;SDS011;11821;51.456;8.844;2023-07-28T03:59:56;1.05;;;0.73;;
23304;SDS011;11821;51.456;8.844;2023-07-28T04:02:23;0.40;;;0.40;;
23304;SDS011;11821;51.456;8.844;2023-07-28T04:04:53;0.38;;;0.30;;
23304;SDS011;11821;51.456;8.844;2023-07-28T04:07:20;0.30;;;0.30;;
23304;SDS011;11821;51.456;8.844;2023-07-28T04:09:47;0.63;;;0.40;;
23304;SDS011;11821;51.456;8.844;2023-07-28T04:12:13;0.25;;;0.25;;
23304;SDS011;11821;51.456;8.844;2023-07-28T04:14:40;1.85;;;0.22;;
23304;SDS011;11821;51.456;8.844;2023-07-28T04:17:06;0.60;;;0.30;;
23304;SDS011;11821;51.456;8.844;2023-07-28T04:19:33;1.65;;;0.32;;
23304;SDS011;11821;51.456;8.844;2023-07-28T04:22:00;0.17;;;0.17;;
23304;SDS011;11821;51.456;8.844;2023-07-28T04:24:29;1.27;;;0.50;;
23304;SDS011;11821;51.456;8.844;2023-07-28T04:26:56;0.55;;;0.20;;
23304;SDS011;11821;51.456;8.844;2023-07-28T04:29:24;0.50;;;0.40;;
23304;SDS011;11821;51.456;8.844;2023-07-28T04:31:50;1.15;;;0.52;;
23304;SDS011;11821;51.456;8.844;2023-07-28T04:34:26;0.38;;;0.38;;
23304;SDS011;11821;51.456;8.844;2023-07-28T04:37:06;1.25;;;0.30;;
23304;SDS011;11821;51.456;8.844;2023-07-28T04:39:49;0.30;;;0.30;;
23304;SDS011;11821;51.456;8.844;2023-07-28T04:42:16;0.20;;;0.20;;
23304;SDS011;11821;51.456;8.844;2023-07-28T04:44:45;0.28;;;0.28;;
23304;SDS011;11821;51.456;8.844;2023-07-28T04:47:13;0.68;;;0.43;;
23304;SDS011;11821;51.456;8.844;2023-07-28T04:49:40;0.85;;;0.30;;
23304;SDS011;11821;51.456;8.844;2023-07-28T04:52:07;0.90;;;0.22;;
23304;SDS011;11821;51.456;8.844;2023-07-28T04:54:43;1.00;;;0.15;;
23304;SDS011;11821;51.456;8.844;2023-07-28T04:57:09;0.63;;;0.30;;
23304;SDS011;11821;51.456;8.844;2023-07-28T04:59:38;0.43;;;0.20;;
23304;SDS011;11821;51.456;8.844;2023-07-28T05:02:04;0.30;;;0.30;;
23304;SDS011;11821;51.456;8.844;2023-07-28T05:04:31;0.25;;;0.20;;
23304;SDS011;11821;51.456;8.844;2023-07-28T05:06:57;1.27;;;0.30;;
23304;SDS011;11821;51.456;8.844;2023-07-28T05:09:24;0.28;;;0.28;;
23304;SDS011;11821;51.456;8.844;2023-07-28T05:11:53;0.82;;;0.35;;
23304;SDS011;11821;51.456;8.844;2023-07-28T05:14:20;2.30;;;0.30;;
23304;SDS011;11821;51.456;8.844;2023-07-28T05:16:47;1.77;;;0.22;;
23304;SDS011;11821;51.456;8.844;2023-07-28T05:19:25;0.17;;;0.17;;
23304;SDS011;11821;51.456;8.844;2023-07-28T05:21:51;0.20;;;0.20;;
23304;SDS011;11821;51.456;8.844;2023-07-28T05:24:22;1.38;;;0.20;;
23304;SDS011;11821;51.456;8.844;2023-07-28T05:26:49;2.47;;;0.25;;
23304;SDS011;11821;51.456;8.844;2023-07-28T05:29:16;0.10;;;0.10;;
23304;SDS011;11821;51.456;8.844;2023-07-28T05:31:45;1.38;;;0.13;;
23304;SDS011;11821;51.456;8.844;2023-07-28T05:34:37;0.30;;;0.30;;
23304;SDS011;11821;51.456;8.844;2023-07-28T05:37:04;1.90;;;0.20;;
23304;SDS011;11821;51.456;8.844;2023-07-28T05:39:32;0.20;;;0.20;;
23304;SDS011;11821;51.456;8.844;2023-07-28T05:41:59;0.20;;;0.20;;
23304;SDS011;11821;51.456;8.844;2023-07-28T05:44:26;0.28;;;0.28;;
23304;SDS011;11821;51.456;8.844;2023-07-28T05:46:53;0.30;;;0.22;;
23304;SDS011;11821;51.456;8.844;2023-07-28T05:49:19;5.38;;;0.25;;
23304;SDS011;11821;51.456;8.844;2023-07-28T05:51:46;0.30;;;0.30;;
23304;SDS011;11821;51.456;8.844;2023-07-28T05:54:14;0.10;;;0.10;;
23304;SDS011;11821;51.456;8.844;2023-07-28T05:56:41;0.68;;;0.32;;
23304;SDS011;11821;51.456;8.844;2023-07-28T05:59:08;0.30;;;0.30;;
23304;SDS011;11821;51.456;8.844;2023-07-28T06:01:34;0.95;;;0.20;;
23304;SDS011;11821;51.456;8.844;2023-07-28T06:04:13;0.40;;;0.17;;
23304;SDS011;11821;51.456;8.844;2023-07-28T06:06:46;2.33;;;0.22;;
23304;SDS011;11821;51.456;8.844;2023-07-28T06:09:14;1.55;;;0.30;;
23304;SDS011;11821;51.456;8.844;2023-07-28T06:11:42;1.10;;;0.40;;
23304;SDS011;11821;51.456;8.844;2023-07-28T06:14:09;0.73;;;0.30;;
23304;SDS011;11821;51.456;8.844;2023-07-28T06:16:36;0.40;;;0.40;;
23304;SDS011;11821;51.456;8.844;2023-07-28T06:19:03;0.40;;;0.40;;
23304;SDS011;11821;51.456;8.844;2023-07-28T06:21:31;1.08;;;0.43;;
23304;SDS011;11821;51.456;8.844;2023-07-28T06:23:57;1.80;;;0.40;;
23304;SDS011;11821;51.456;8.844;2023-07-28T06:26:24;0.30;;;0.30;;
23304;SDS011;11821;51.456;8.844;2023-07-28T06:28:51;0.80;;;0.22;;
23304;SDS011;11821;51.456;8.844;2023-07-28T06:31:17;0.80;;;0.57;;
23304;SDS011;11821;51.456;8.844;2023-07-28T06:33:44;1.85;;;0.60;;
23304;SDS011;11821;51.456;8.844;2023-07-28T06:36:10;0.50;;;0.50;;
23304;SDS011;11821;51.456;8.844;2023-07-28T06:38:37;1.38;;;0.60;;
23304;SDS011;11821;51.456;8.844;2023-07-28T06:41:04;0.60;;;0.50;;
23304;SDS011;11821;51.456;8.844;2023-07-28T06:43:31;2.20;;;0.52;;
23304;SDS011;11821;51.456;8.844;2023-07-28T06:46:00;0.40;;;0.40;;
23304;SDS011;11821;51.456;8.844;2023-07-28T06:48:27;0.40;;;0.40;;
23304;SDS011;11821;51.456;8.844;2023-07-28T06:50:54;1.60;;;0.40;;
23304;SDS011;11821;51.456;8.844;2023-07-28T06:53:21;0.35;;;0.35;;
23304;SDS011;11821;51.456;8.844;2023-07-28T06:55:47;0.30;;;0.30;;
23304;SDS011;11821;51.456;8.844;2023-07-28T06:58:14;0.65;;;0.40;;
23304;SDS011;11821;51.456;8.844;2023-07-28T07:00:40;0.40;;;0.40;;
23304;SDS011;11821;51.456;8.844;2023-07-28T07:03:07;1.13;;;0.35;;
23304;SDS011;11821;51.456;8.844;2023-07-28T07:05:34;0.47;;;0.47;;
23304;SDS011;11821;51.456;8.844;2023-07-28T07:08:00;0.47;;;0.47;;
23304;SDS011;11821;51.456;8.844;2023-07-28T07:10:27;1.08;;;0.40;;
23304;SDS011;11821;51.456;8.844;2023-07-28T07:12:53;0.73;;;0.50;;
23304;SDS011;11821;51.456;8.844;2023-07-28T07:15:22;0.50;;;0.50;;
23304;SDS011;11821;51.456;8.844;2023-07-28T07:17:48;1.70;;;0.55;;
23304;SDS011;11821;51.456;8.844;2023-07-28T07:20:15;0.60;;;0.60;;
23304;SDS011;11821;51.456;8.844;2023-07-28T07:22:41;0.93;;;0.68;;
23304;SDS011;11821;51.456;8.844;2023-07-28T07:25:09;0.50;;;0.50;;
23304;SDS011;11821;51.456;8.844;2023-07-28T07:27:36;0.98;;;0.70;;
23304;SDS011;11821;51.456;8.844;2023-07-28T07:30:02;0.98;;;0.60;;
23304;SDS011;11821;51.456;8.844;2023-07-28T07:32:29;0.70;;;0.70;;
23304;SDS011;11821;51.456;8.844;2023-07-28T07:34:56;0.75;;;0.75;;
23304;SDS011;11821;51.456;8.844;2023-07-28T07:37:22;0.80;;;0.80;;
23304;SDS011;11821;51.456;8.844;2023-07-28T07:39:49;1.00;;;1.00;;
23304;SDS011;11821;51.456;8.844;2023-07-28T07:42:16;1.85;;;1.10;;
23304;SDS011;11821;51.456;8.844;2023-07-28T07:44:42;0.73;;;0.73;;
23304;SDS011;11821;51.456;8.844;2023-07-28T07:47:12;2.45;;;1.10;;
23304;SDS011;11821;51.456;8.844;2023-07-28T07:49:42;1.02;;;1.00;;
23304;SDS011;11821;51.456;8.844;2023-07-28T07:52:09;0.90;;;0.90;;
23304;SDS011;11821;51.456;8.844;2023-07-28T07:54:35;1.17;;;1.08;;
23304;SDS011;11821;51.456;8.844;2023-07-28T07:57:02;2.40;;;1.15;;
23304;SDS011;11821;51.456;8.844;2023-07-28T07:59:29;1.13;;;1.10;;
23304;SDS011;11821;51.456;8.844;2023-07-28T08:01:58;1.23;;;1.13;;
23304;SDS011;11821;51.456;8.844;2023-07-28T08:04:26;1.45;;;1.20;;
23304;SDS011;11821;51.456;8.844;2023-07-28T08:06:53;1.55;;;1.45;;
23304;SDS011;11821;51.456;8.844;2023-07-28T08:09:20;1.00;;;1.00;;
23304;SDS011;11821;51.456;8.844;2023-07-28T08:11:47;1.27;;;1.20;;
23304;SDS011;11821;51.456;8.844;2023-07-28T08:14:13;3.38;;;1.60;;
23304;SDS011;11821;51.456;8.844;2023-07-28T08:16:40;1.33;;;1.23;;
23304;SDS011;11821;51.456;8.844;2023-07-28T08:19:07;1.42;;;1.33;;
23304;SDS011;11821;51.456;8.844;2023-07-28T08:21:33;1.58;;;1.48;;
23304;SDS011;11821;51.456;8.844;2023-07-28T08:24:02;3.15;;;1.40;;
23304;SDS011;11821;51.456;8.844;2023-07-28T08:26:29;1.30;;;1.20;;
23304;SDS011;11821;51.456;8.844;2023-07-28T08:28:56;1.92;;;1.67;;
23304;SDS011;11821;51.456;8.844;2023-07-28T08:31:22;4.68;;;1.70;;
23304;SDS011;11821;51.456;8.844;2023-07-28T08:33:49;1.90;;;1.60;;
23304;SDS011;11821;51.456;8.844;2023-07-28T08:36:15;1.40;;;1.30;;
23304;SDS011;11821;51.456;8.844;2023-07-28T08:38:42;2.00;;;1.52;;
23304;SDS011;11821;51.456;8.844;2023-07-28T08:41:10;1.05;;;1.00;;
23304;SDS011;11821;51.456;8.844;2023-07-28T08:43:37;2.50;;;1.65;;
23304;SDS011;11821;51.456;8.844;2023-07-28T08:46:03;2.00;;;1.80;;
23304;SDS011;11821;51.456;8.844;2023-07-28T08:48:30;2.38;;;1.60;;
23304;SDS011;11821;51.456;8.844;2023-07-28T08:50:57;2.47;;;1.73;;
23304;SDS011;11821;51.456;8.844;2023-07-28T08:53:23;1.65;;;1.55;;
23304;SDS011;11821;51.456;8.844;2023-07-28T08:55:51;1.40;;;1.30;;
23304;SDS011;11821;51.456;8.844;2023-07-28T08:58:18;2.72;;;2.30;;
23304;SDS011;11821;51.456;8.844;2023-07-28T09:00:45;3.00;;;2.15;;
23304;SDS011;11821;51.456;8.844;2023-07-28T09:03:14;2.58;;;2.25;;
23304;SDS011;11821;51.456;8.844;2023-07-28T09:05:42;2.95;;;2.42;;
23304;SDS011;11821;51.456;8.844;2023-07-28T09:08:09;4.18;;;2.53;;
23304;SDS011;11821;51.456;8.844;2023-07-28T09:10:46;2.55;;;2.35;;
23304;SDS011;11821;51.456;8.844;2023-07-28T09:13:15;2.10;;;2.00;;
23304;SDS011;11821;51.456;8.844;2023-07-28T09:15:43;2.15;;;1.55;;
23304;SDS011;11821;51.456;8.844;2023-07-28T09:18:10;3.38;;;1.70;;
23304;SDS011;11821;51.456;8.844;2023-07-28T09:20:39;2.13;;;1.92;;
23304;SDS011;11821;51.456;8.844;2023-07-28T09:23:09;1.83;;;1.50;;
23304;SDS011;11821;51.456;8.844;2023-07-28T09:25:40;1.83;;;1.73;;
23304;SDS011;11821;51.456;8.844;2023-07-28T09:28:07;1.65;;;1.55;;
23304;SDS011;11821;51.456;8.844;2023-07-28T09:30:49;1.75;;;1.65;;
23304;SDS011;11821;51.456;8.844;2023-07-28T09:33:29;1.23;;;1.13;;
23304;SDS011;11821;51.456;8.844;2023-07-28T09:35:56;3.95;;;1.00;;
23304;SDS011;11821;51.456;8.844;2023-07-28T09:38:32;0.80;;;0.80;;
23304;SDS011;11821;51.456;8.844;2023-07-28T09:41:00;0.90;;;0.90;;
23304;SDS011;11821;51.456;8.844;2023-07-28T09:43:31;1.38;;;0.88;;
23304;SDS011;11821;51.456;8.844;2023-07-28T09:45:57;0.88;;;0.88;;
23304;SDS011;11821;51.456;8.844;2023-07-28T09:48:24;0.90;;;0.85;;
23304;SDS011;11821;51.456;8.844;2023-07-28T09:50:51;0.95;;;0.85;;
23304;SDS011;11821;51.456;8.844;2023-07-28T09:53:18;0.82;;;0.82;;
23304;SDS011;11821;51.456;8.844;2023-07-28T09:55:46;1.65;;;0.80;;
23304;SDS011;11821;51.456;8.844;2023-07-28T09:58:15;1.00;;;1.00;;
23304;SDS011;11821;51.456;8.844;2023-07-28T10:00:43;1.85;;;1.20;;
23304;SDS011;11821;51.456;8.844;2023-07-28T10:03:12;1.50;;;1.40;;
23304;SDS011;11821;51.456;8.844;2023-07-28T10:05:40;2.53;;;1.50;;
23304;SDS011;11821;51.456;8.844;2023-07-28T10:08:07;2.35;;;1.40;;
23304;SDS011;11821;51.456;8.844;2023-07-28T10:10:34;1.33;;;1.23;;
23304;SDS011;11821;51.456;8.844;2023-07-28T10:13:01;1.40;;;1.30;;
23304;SDS011;11821;51.456;8.844;2023-07-28T10:15:29;1.50;;;1.40;;
23304;SDS011;11821;51.456;8.844;2023-07-28T10:17:57;1.40;;;1.30;;
23304;SDS011;11821;51.456;8.844;2023-07-28T10:23:02;3.25;;;1.67;;
23304;SDS011;11821;51.456;8.844;2023-07-28T10:25:31;2.22;;;1.88;;
23304;SDS011;11821;51.456;8.844;2023-07-28T10:28:03;1.90;;;1.80;;
23304;SDS011;11821;51.456;8.844;2023-07-28T10:30:50;1.90;;;1.58;;
23304;SDS011;11821;51.456;8.844;2023-07-28T10:33:28;2.03;;;1.90;;
23304;SDS011;11821;51.456;8.844;2023-07-28T10:35:59;3.90;;;2.10;;
23304;SDS011;11821;51.456;8.844;2023-07-28T10:38:36;2.20;;;2.00;;
23304;SDS011;11821;51.456;8.844;2023-07-28T10:41:06;2.67;;;2.20;;
23304;SDS011;11821;51.456;8.844;2023-07-28T10:43:36;2.28;;;2.08;;
23304;SDS011;11821;51.456;8.844;2023-07-28T10:46:03;2.30;;;2.10;;
23304;SDS011;11821;51.456;8.844;2023-07-28T10:48:34;2.70;;;2.50;;
23304;SDS011;11821;51.456;8.844;2023-07-28T10:51:02;4.00;;;3.15;;
23304;SDS011;11821;51.456;8.844;2023-07-28T10:53:31;4.60;;;2.33;;
23304;SDS011;11821;51.456;8.844;2023-07-28T10:55:58;3.28;;;2.20;;
23304;SDS011;11821;51.456;8.844;2023-07-28T10:58:26;3.13;;;2.53;;
23304;SDS011;11821;51.456;8.844;2023-07-28T11:00:52;4.82;;;3.08;;
23304;SDS011;11821;51.456;8.844;2023-07-28T11:03:18;3.00;;;2.63;;
23304;SDS011;11821;51.456;8.844;2023-07-28T11:05:45;2.22;;;2.03;;
23304;SDS011;11821;51.456;8.844;2023-07-28T11:08:14;3.15;;;2.22;;
23304;SDS011;11821;51.456;8.844;2023-07-28T11:10:41;2.22;;;2.03;;
23304;SDS011;11821;51.456;8.844;2023-07-28T11:13:07;1.88;;;1.70;;
23304;SDS011;11821;51.456;8.844;2023-07-28T11:15:34;2.78;;;1.92;;
23304;SDS011;11821;51.456;8.844;2023-07-28T11:18:02;5.00;;;2.38;;
23304;SDS011;11821;51.456;8.844;2023-07-28T11:20:30;2.15;;;1.77;;
23304;SDS011;11821;51.456;8.844;2023-07-28T11:23:00;2.60;;;2.05;;
23304;SDS011;11821;51.456;8.844;2023-07-28T11:25:32;2.28;;;2.08;;
23304;SDS011;11821;51.456;8.844;2023-07-28T11:28:02;2.72;;;2.30;;
23304;SDS011;11821;51.456;8.844;2023-07-28T11:30:32;2.63;;;2.33;;
23304;SDS011;11821;51.456;8.844;2023-07-28T11:33:03;2.67;;;2.25;;
23304;SDS011;11821;51.456;8.844;2023-07-28T11:35:34;2.30;;;2.10;;
23304;SDS011;11821;51.456;8.844;2023-07-28T11:38:00;4.32;;;2.35;;
23304;SDS011;11821;51.456;8.844;2023-07-28T11:40:27;2.53;;;2.08;;
23304;SDS011;11821;51.456;8.844;2023-07-28T11:42:54;2.50;;;2.28;;
23304;SDS011;11821;51.456;8.844;2023-07-28T11:45:21;2.70;;;2.50;;
23304;SDS011;11821;51.456;8.844;2023-07-28T11:47:54;3.15;;;1.85;;
23304;SDS011;11821;51.456;8.844;2023-07-28T11:52:53;1.95;;;1.83;;
23304;SDS011;11821;51.456;8.844;2023-07-28T11:55:21;5.93;;;1.83;;
23304;SDS011;11821;51.456;8.844;2023-07-28T11:57:49;2.45;;;1.70;;
23304;SDS011;11821;51.456;8.844;2023-07-28T12:00:17;2.30;;;1.40;;
23304;SDS011;11821;51.456;8.844;2023-07-28T12:02:46;1.73;;;1.35;;
23304;SDS011;11821;51.456;8.844;2023-07-28T12:05:14;1.40;;;1.30;;
23304;SDS011;11821;51.456;8.844;2023-07-28T12:07:46;1.65;;;1.30;;
23304;SDS011;11821;51.456;8.844;2023-07-28T12:10:13;1.08;;;0.90;;
23304;SDS011;11821;51.456;8.844;2023-07-28T12:12:44;0.70;;;0.70;;
23304;SDS011;11821;51.456;8.844;2023-07-28T12:17:59;0.77;;;0.77;;
23304;SDS011;11821;51.456;8.844;2023-07-28T12:20:32;0.85;;;0.80;;
23304;SDS011;11821;51.456;8.844;2023-07-28T12:23:00;1.02;;;0.70;;
23304;SDS011;11821;51.456;8.844;2023-07-28T12:25:27;0.57;;;0.57;;
23304;SDS011;11821;51.456;8.844;2023-07-28T12:27:53;0.70;;;0.70;;
23304;SDS011;11821;51.456;8.844;2023-07-28T12:30:19;1.25;;;0.77;;
23304;SDS011;11821;51.456;8.844;2023-07-28T12:32:45;1.05;;;0.80;;
23304;SDS011;11821;51.456;8.844;2023-07-28T12:35:12;2.03;;;0.57;;
23304;SDS011;11821;51.456;8.844;2023-07-28T12:37:38;1.90;;;0.82;;
23304;SDS011;11821;51.456;8.844;2023-07-28T12:40:05;0.80;;;0.80;;
23304;SDS011;11821;51.456;8.844;2023-07-28T12:42:32;0.90;;;0.50;;
23304;SDS011;11821;51.456;8.844;2023-07-28T12:44:58;0.60;;;0.60;;
23304;SDS011;11821;51.456;8.844;2023-07-28T12:47:25;1.48;;;0.70;;
23304;SDS011;11821;51.456;8.844;2023-07-28T12:49:51;1.83;;;0.70;;
23304;SDS011;11821;51.456;8.844;2023-07-28T12:52:17;0.80;;;0.80;;
23304;SDS011;11821;51.456;8.844;2023-07-28T12:54:44;1.25;;;0.80;;
23304;SDS011;11821;51.456;8.844;2023-07-28T12:57:10;0.98;;;0.60;;
23304;SDS011;11821;51.456;8.844;2023-07-28T12:59:38;0.73;;;0.73;;
23304;SDS011;11821;51.456;8.844;2023-07-28T13:02:05;0.85;;;0.70;;
23304;SDS011;11821;51.456;8.844;2023-07-28T13:04:31;0.98;;;0.70;;
23304;SDS011;11821;51.456;8.844;2023-07-28T13:06:58;3.35;;;1.23;;
23304;SDS011;11821;51.456;8.844;2023-07-28T13:09:24;1.27;;;0.95;;
23304;SDS011;11821;51.456;8.844;2023-07-28T13:11:50;0.95;;;0.93;;
23304;SDS011;11821;51.456;8.844;2023-07-28T13:14:16;0.60;;;0.60;;
23304;SDS011;11821;51.456;8.844;2023-07-28T13:16:42;0.60;;;0.60;;
23304;SDS011;11821;51.456;8.844;2023-07-28T13:19:10;1.00;;;0.90;;
23304;SDS011;11821;51.456;8.844;2023-07-28T13:21:36;0.73;;;0.73;;
23304;SDS011;11821;51.456;8.844;2023-07-28T13:24:02;4.95;;;0.75;;
23304;SDS011;11821;51.456;8.844;2023-07-28T13:26:29;1.30;;;1.00;;
23304;SDS011;11821;51.456;8.844;2023-07-28T13:28:56;1.25;;;0.93;;
23304;SDS011;11821;51.456;8.844;2023-07-28T13:31:24;1.23;;;1.02;;
23304;SDS011;11821;51.456;8.844;2023-07-28T13:33:50;0.80;;;0.80;;
23304;SDS011;11821;51.456;8.844;2023-07-28T13:36:17;1.00;;;1.00;;
23304;SDS011;11821;51.456;8.844;2023-07-28T13:38:43;1.25;;;1.05;;
23304;SDS011;11821;51.456;8.844;2023-07-28T13:41:09;1.38;;;1.10;;
23304;SDS011;11821;51.456;8.844;2023-07-28T13:43:35;2.67;;;0.88;;
23304;SDS011;11821;51.456;8.844;2023-07-28T13:46:03;1.00;;;0.90;;
23304;SDS011;11821;51.456;8.844;2023-07-28T13:48:33;1.90;;;0.98;;
23304;SDS011;11821;51.456;8.844;2023-07-28T13:51:01;1.33;;;1.02;;
23304;SDS011;11821;51.456;8.844;2023-07-28T13:53:28;1.10;;;1.00;;
23304;SDS011;11821;51.456;8.844;2023-07-28T13:55:54;0.80;;;0.80;;
23304;SDS011;11821;51.456;8.844;2023-07-28T13:58:21;1.15;;;1.05;;
23304;SDS011;11821;51.456;8.844;2023-07-28T14:00:47;1.65;;;1.10;;
23304;SDS011;11821;51.456;8.844;2023-07-28T14:03:13;1.20;;;1.10;;
23304;SDS011;11821;51.456;8.844;2023-07-28T14:05:41;0.95;;;0.95;;
23304;SDS011;11821;51.456;8.844;2023-07-28T14:08:07;1.30;;;1.10;;
23304;SDS011;11821;51.456;8.844;2023-07-28T14:10:33;7.18;;;1.30;;
23304;SDS011;11821;51.456;8.844;2023-07-28T14:13:01;1.17;;;1.08;;
23304;SDS011;11821;51.456;8.844;2023-07-28T14:15:28;1.38;;;1.25;;
23304;SDS011;11821;51.456;8.844;2023-07-28T14:17:55;1.40;;;1.30;;
23304;SDS011;11821;51.456;8.844;2023-07-28T14:20:21;1.52;;;1.20;;
23304;SDS011;11821;51.456;8.844;2023-07-28T14:22:47;1.40;;;1.30;;
23304;SDS011;11821;51.456;8.844;2023-07-28T14:25:14;1.20;;;1.10;;
23304;SDS011;11821;51.456;8.844;2023-07-28T14:27:40;1.60;;;1.50;;
23304;SDS011;11821;51.456;8.844;2023-07-28T14:30:07;1.50;;;1.38;;
23304;SDS011;11821;51.456;8.844;2023-07-28T14:32:34;1.40;;;1.30;;
23304;SDS011;11821;51.456;8.844;2023-07-28T14:35:00;2.30;;;1.67;;
23304;SDS011;11821;51.456;8.844;2023-07-28T14:37:27;1.52;;;1.33;;
23304;SDS011;11821;51.456;8.844;2023-07-28T14:39:53;1.38;;;1.30;;
23304;SDS011;11821;51.456;8.844;2023-07-28T14:42:19;1.73;;;1.50;;
23304;SDS011;11821;51.456;8.844;2023-07-28T14:44:45;2.90;;;1.95;;
23304;SDS011;11821;51.456;8.844;2023-07-28T14:47:12;1.73;;;1.63;;
23304;SDS011;11821;51.456;8.844;2023-07-28T14:49:38;1.40;;;1.30;;
23304;SDS011;11821;51.456;8.844;2023-07-28T14:52:04;2.20;;;1.70;;
23304;SDS011;11821;51.456;8.844;2023-07-28T14:54:31;1.52;;;1.42;;
23304;SDS011;11821;51.456;8.844;2023-07-28T14:56:58;1.85;;;1.50;;
23304;SDS011;11821;51.456;8.844;2023-07-28T14:59:24;1.80;;;1.70;;
23304;SDS011;11821;51.456;8.844;2023-07-28T15:01:50;2.65;;;1.70;;
23304;SDS011;11821;51.456;8.844;2023-07-28T15:04:16;1.77;;;1.67;;
23304;SDS011;11821;51.456;8.844;2023-07-28T15:06:42;1.40;;;1.30;;